Flight Track Log - Related Links

Times and Time Zones

All times are in EDT time to prevent confusion due to time zone crossing. See the VH-TXI flight status page for this flight to view local times or setup timezone preferences in your user account.

Time Position Orientation Groundspeed Altitude Reporting Facility
EDT Latitude Longitude Course Direction KTS MPH feet Rate Location/Type
Wed 07:02:04 PM -29.9201 153.1093 350° North 89 102 5,400  Level Aus ATC (RADAR)
Wed 07:03:04 PM -29.8916 153.1034 350° North 102 117 5,800 400 Climbing Aus ATC (RADAR)
Wed 07:03:49 PM -29.8712 153.1003 353° North 98 113 6,100 300 Climbing Aus ATC (RADAR)
Wed 07:04:24 PM -29.8560 153.0997 358° North 94 108 6,200 202 Climbing Aus ATC (RADAR)
Wed 07:05:18 PM -29.8330 153.0960 352° North 90 104 6,400 286 Climbing Aus ATC (RADAR)
Wed 07:05:48 PM -29.8211 153.0927 346° North 87 100 6,600 100 Climbing Aus ATC (RADAR)
Wed 07:07:18 PM -29.7741 153.0896 357° North 124 143 6,600  Level Aus ATC (RADAR)
Wed 07:08:13 PM -29.7411 153.0938 North 130 150 6,600  Level Aus ATC (RADAR)
Wed 07:08:58 PM -29.7142 153.0975 North 130 150 6,600  Level Aus ATC (RADAR)
Wed 07:09:38 PM -29.6886 153.1036 12° North 139 160 6,600  Level Aus ATC (RADAR)
Wed 07:10:38 PM -29.6528 153.1039 360° North 129 148 6,600  Level Aus ATC (RADAR)
Wed 07:12:03 PM -29.6034 153.1052 North 125 144 6,600 50 Level Aus ATC (RADAR)
Wed 07:12:38 PM -29.5824 153.1076 North 130 150 6,700 353 Climbing Aus ATC (RADAR)
Wed 07:13:28 PM -29.5573 153.1106 North 108 124 7,100 420 Climbing Aus ATC (RADAR)
Wed 07:14:18 PM -29.5351 153.1077 353° North 94 108 7,400 442 Climbing Aus ATC (RADAR)
Wed 07:15:03 PM -29.5189 153.0993 336° Northwest 82 94 7,800 436 Climbing Aus ATC (RADAR)
Wed 07:16:08 PM -29.5005 153.0829 322° Northwest 74 85 8,200 300 Climbing Aus ATC (RADAR)
Wed 07:17:43 PM -29.4671 153.0679 339° North 90 104 8,600 171 Climbing Aus ATC (RADAR)
Wed 07:18:28 PM -29.4446 153.0648 353° North 111 128 8,600 63 Level Aus ATC (RADAR)
Wed 07:19:18 PM -29.4157 153.0683 North 125 144 8,700 63 Climbing Aus ATC (RADAR)
Wed 07:20:03 PM -29.3881 153.0732 North 133 153 8,700 -115 Level Aus ATC (RADAR)
Wed 07:21:02 PM -29.3503 153.0779 North 134 154 8,500 -65 Descending Aus ATC (RADAR)
Wed 07:23:08 PM -29.2794 153.0817 North 123 142 8,500 35 Level Aus ATC (RADAR)
Wed 07:23:52 PM -29.2504 153.0800 357° North 125 144 8,600 58 Climbing Aus ATC (RADAR)
Wed 07:24:52 PM -29.2149 153.0752 353° North 133 153 8,600  Level Aus ATC (RADAR)
Wed 07:25:22 PM -29.1963 153.0721 352° North 132 152 8,600 -100 Level Aus ATC (RADAR)
Wed 07:25:52 PM -29.1777 153.0688 351° North 135 155 8,500  Descending Aus ATC (RADAR)
Wed 07:27:27 PM -29.1192 153.0675 359° North 131 151 8,600 46 Climbing Aus ATC (RADAR)
Wed 07:28:02 PM -29.0977 153.0668 358° North 132 152 8,600 -63 Level Aus ATC (RADAR)
Wed 07:29:02 PM -29.0595 153.0721 North 136 157 8,500 -55 Descending Aus ATC (RADAR)
Wed 07:29:51 PM -29.0290 153.0695 356° North 128 147 8,500 -76 Level Aus ATC (RADAR)
Wed 07:30:21 PM -29.0127 153.0666 351° North 119 137 8,400  Descending Aus ATC (RADAR)
Wed 07:31:11 PM -28.9868 153.0592 346° North 115 132 8,500 75 Climbing Aus ATC (RADAR)
Wed 07:33:01 PM -28.9262 153.0466 350° North 124 143 8,600 36 Climbing Aus ATC (RADAR)
Wed 07:33:56 PM -28.8959 153.0411 351° North 121 139 8,600 52 Level Aus ATC (RADAR)
Wed 07:34:56 PM -28.8593 153.0377 355° North 133 153 8,700  Climbing Aus ATC (RADAR)
Wed 07:35:31 PM -28.8375 153.0373 359° North 135 155 8,600 -200 Descending Aus ATC (RADAR)
Wed 07:36:26 PM -28.8022 153.0316 352° North 136 157 8,400 -40 Descending Aus ATC (RADAR)
Wed 07:38:01 PM -28.7438 153.0329 North 135 155 8,500 42 Climbing Aus ATC (RADAR)
Wed 07:38:50 PM -28.7128 153.0339 North 132 152 8,500 -61 Level Aus ATC (RADAR)
Wed 07:39:40 PM -28.6837 153.0273 349° North 128 147 8,400  Descending Aus ATC (RADAR)
Wed 07:40:15 PM -28.6654 153.0237 350° North 115 132 8,500 200 Climbing Aus ATC (RADAR)
Wed 07:41:10 PM -28.6375 153.0130 341° North 113 130 8,700  Climbing Aus ATC (RADAR)
Wed 07:43:15 PM -28.5655 153.0009 352° North 132 152 8,500 -32 Descending Aus ATC (RADAR)
Wed 07:44:15 PM -28.5299 153.0051 North 132 152 8,600  Climbing Aus ATC (RADAR)
Wed 07:45:10 PM -28.4934 153.0098 North 147 169 8,500 -71 Descending Aus ATC (RADAR)
Wed 07:45:40 PM -28.4736 153.0138 10° North 147 169 8,500 -67 Level Aus ATC (RADAR)
Wed 07:46:40 PM -28.4351 153.0230 12° North 140 161 8,400 41 Descending Aus ATC (RADAR)
Wed 07:48:05 PM -28.3834 153.0313 North 135 155 8,600 89 Climbing Aus ATC (RADAR)
Wed 07:48:55 PM -28.3528 153.0345 North 132 152 8,600 -240 Level Aus ATC (RADAR)
Wed 07:49:45 PM -28.3189 153.0361 North 147 169 8,200 -629 Descending Aus ATC (RADAR)
Wed 07:50:40 PM -28.2819 153.0340 357° North 144 166 7,500 -667 Descending Aus ATC (RADAR)
Wed 07:51:24 PM -28.2514 153.0321 357° North 146 168 7,100 -388 Descending Aus ATC (RADAR)
Wed 07:52:59 PM -28.1885 153.0298 358° North 136 157 6,600 -248 Descending Aus ATC (RADAR)
Wed 07:53:49 PM -28.1588 153.0272 356° North 129 148 6,500 -400 Descending Aus ATC (RADAR)
Wed 07:55:14 PM -28.1019 153.0247 358° North 148 170 5,700 -686 Descending Aus ATC (RADAR)
Wed 07:56:09 PM -28.0642 153.0241 359° North 149 171 4,900 -800 Descending Aus ATC (RADAR)
Wed 07:56:59 PM -28.0302 153.0223 357° North 146 168 4,300 -207 Descending Aus ATC (RADAR)
Wed 07:58:34 PM -27.9747 153.0125 351° North 121 139 4,400 -155 Climbing Aus ATC (RADAR)
Wed 07:59:34 PM -27.9358 153.0101 357° North 144 166 3,900 -678 Descending Aus ATC (RADAR)
Wed 08:00:29 PM -27.8978 153.0219 15° North 154 177 3,100 -821 Descending Aus ATC (RADAR)
Wed 08:01:09 PM -27.8712 153.0286 13° North 148 170 2,600 -706 Descending Aus ATC (RADAR)
Wed 08:01:54 PM -27.8407 153.0331 North 148 170 2,100 -216 Descending Aus ATC (RADAR)
Wed 08:03:28 PM -27.7865 153.0416 North 122 140 2,100  Level Aus ATC (RADAR)
Wed 08:04:28 PM -27.7517 153.0492 11° North 130 150 2,100 -57 Level Aus ATC (RADAR)
Wed 08:05:13 PM -27.7263 153.0533 North 123 142 2,000 -424 Descending Aus ATC (RADAR)
Wed 08:05:53 PM -27.7009 153.0542 North 136 157 1,500 -333 Descending Aus ATC (RADAR)
Wed 08:06:43 PM -27.6722 153.0574 North 122 140 1,500 -137 Level Aus ATC (RADAR)
Wed 08:08:48 PM -27.6010 153.0551 358° North 121 139 1,100 -200 Descending Aus ATC (RADAR)
Wed 08:09:43 PM -27.5806 153.0399 327° Northwest 94 108 900 -420 Descending Aus ATC (RADAR)
Wed 08:10:28 PM -27.5776 153.0216 280° West 77 89 400 -667 Descending Aus ATC (RADAR)

Login

Don't have an account? Register now (free) for customized features, flight alerts, and more!